• Join FlightAware (Why Join?)
  • Login
  • US Flag 
02:19AM EDT


 

Airport Tracker/Info


-or-


 

Live Flight TrackerFlight Track Log ✈ RJA264 ✈ 08-May-2013 ✈ KORD - OJAI / AMM

Flight Track Log - Related Links

Times and Time Zones

All times are in EDT time to prevent confusion due to time zone crossing. See the RJA264 flight status page for this flight to view local times or setup timezone preferences in your user account.

Time Position Orientation Groundspeed Altitude Reporting Facility
EDT Latitude Longitude Course Direction KTS MPH feet Rate Location/Type
11:10PM 41.9690 -87.8720 90° East 171 197 1,000  Level FlightAware
11:10PM 41.9720 -87.8590 73° East 171 197 1,300 1,380 Climbing FlightAware
11:11PM 41.9810 -87.8460 47° Northeast 173 199 1,700 1,440 Climbing FlightAware
11:11PM 42.0010 -87.8280 34° Northeast 176 203 2,400 1,260 Climbing FlightAware
11:12PM 42.0190 -87.8110 35° Northeast 179 206 2,900 1,200 Climbing FlightAware
11:12PM 42.0280 -87.8020 37° Northeast 177 204 3,200 1,200 Climbing FlightAware
11:12PM 42.0440 -87.7860 37° Northeast 180 207 3,700 900 Climbing FlightAware
11:12PM 42.0550 -87.7750 37° Northeast 190 219 3,800 360 Climbing FlightAware
11:13PM 42.0800 -87.7620 21° North 211 243 4,000 480 Climbing FlightAware
11:13PM 42.1110 -87.7640 357° North 239 275 4,300 600 Climbing FlightAware
11:14PM 42.1410 -87.7670 356° North 263 303 4,600 900 Climbing FlightAware
11:14PM 42.1590 -87.7680 358° North 272 313 4,900 1,560 Climbing FlightAware
11:15PM 42.1980 -87.7720 356° North 281 323 5,800 2,160 Climbing FlightAware
11:15PM 42.2310 -87.7740 357° North 274 315 6,900 2,280 Climbing FlightAware
11:16PM 42.2690 -87.7750 359° North 274 315 7,900 1,980 Climbing FlightAware
11:16PM 42.2870 -87.7760 358° North 275 316 8,400 1,920 Climbing FlightAware
11:16PM 42.3200 -87.7780 357° North 276 318 9,200 1,740 Climbing FlightAware
11:17PM 42.3710 -87.7800 358° North 280 322 10,300 1,380 Climbing FlightAware
11:18PM 42.4300 -87.7830 358° North 298 343 11,200 1,020 Climbing FlightAware
11:18PM 42.4640 -87.7740 11° North 318 366 11,500 600 Climbing FlightAware
11:19PM 42.5320 -87.7480 16° North 353 406 11,900 1,020 Climbing FlightAware
11:19PM 42.5970 -87.7230 16° North 359 413 13,000 1,620 Climbing FlightAware
11:20PM 42.6650 -87.6970 16° North 361 415 14,200 1,440 Climbing FlightAware
11:21PM 42.7330 -87.6710 16° North 371 427 15,100 1,380 Climbing FlightAware
11:22PM 42.8070 -87.6420 16° North 378 435 16,200 1,380 Climbing FlightAware
11:22PM 42.8720 -87.5950 28° Northeast 390 449 17,100 1,320 Climbing FlightAware
11:23PM 42.9320 -87.5440 32° Northeast 396 456 18,000 1,380 Climbing FlightAware
11:24PM 43.0050 -87.4800 33° Northeast 400 460 19,100 1,380 Climbing FlightAware
11:24PM 43.0670 -87.4270 32° Northeast 405 466 20,000 1,260 Climbing FlightAware
11:25PM 43.1310 -87.3700 33° Northeast 411 473 20,800 1,200 Climbing FlightAware
11:26PM 43.2050 -87.3060 32° Northeast 414 476 21,700 1,080 Climbing FlightAware
11:26PM 43.2680 -87.2510 32° Northeast 418 481 22,400 960 Climbing FlightAware
11:27PM 43.3410 -87.1870 33° Northeast 422 486 23,100 960 Climbing FlightAware
11:28PM 43.4070 -87.1290 33° Northeast 424 488 23,800 1,020 Climbing FlightAware
11:29PM 43.4840 -87.0610 33° Northeast 427 491 24,600 900 Climbing FlightAware
11:29PM 43.5430 -87.0090 33° Northeast 429 494 25,100 780 Climbing FlightAware
11:30PM 43.6170 -86.9440 32° Northeast 431 496 25,700 840 Climbing FlightAware
11:31PM 43.6880 -86.8810 33° Northeast 433 498 26,300 660 Climbing FlightAware
11:31PM 43.7590 -86.8180 33° Northeast 436 502 26,700 600 Climbing FlightAware
11:32PM 43.8380 -86.7470 33° Northeast 441 507 27,200 660 Climbing FlightAware
11:33PM 43.9040 -86.6880 33° Northeast 443 510 27,700 660 Climbing FlightAware
11:33PM 43.9710 -86.6280 33° Northeast 446 513 28,100 600 Climbing FlightAware
11:34PM 44.0520 -86.5550 33° Northeast 448 516 28,600 540 Climbing FlightAware
11:35PM 44.1190 -86.4940 33° Northeast 451 519 28,900 540 Climbing FlightAware
11:36PM 44.2020 -86.4180 33° Northeast 452 520 29,400 540 Climbing FlightAware
11:36PM 44.2700 -86.3560 33° Northeast 455 524 29,700 480 Climbing FlightAware
11:37PM 44.3420 -86.2910 33° Northeast 455 524 30,100 480 Climbing FlightAware
11:38PM 44.4200 -86.2200 33° Northeast 457 526 30,400 420 Climbing FlightAware
11:38PM 44.4900 -86.1550 34° Northeast 457 526 30,700 540 Climbing FlightAware
11:39PM 44.5690 -86.0830 33° Northeast 456 525 31,200 540 Climbing FlightAware
11:40PM 44.6380 -86.0190 33° Northeast 456 525 31,500 420 Climbing FlightAware
11:40PM 44.7060 -85.9570 33° Northeast 456 525 31,800 540 Climbing FlightAware
11:41PM 44.7890 -85.8790 34° Northeast 453 521 32,300 480 Climbing FlightAware
11:42PM 44.8570 -85.8160 33° Northeast 453 521 32,500 240 Climbing FlightAware
11:43PM 44.9390 -85.7390 34° Northeast 455 524 32,700 360 Climbing FlightAware
11:43PM 44.9990 -85.6830 33° Northeast 453 521 33,000 180 Climbing FlightAware
11:44PM 45.0870 -85.6000 34° Northeast 459 528 33,000  Level FlightAware
11:45PM 45.1550 -85.5360 34° Northeast 461 531 33,000  Level FlightAware
11:45PM 45.2280 -85.4670 34° Northeast 461 531 33,000  Level FlightAware
11:46PM 45.2990 -85.3990 34° Northeast 460 529 33,000  Level FlightAware
11:47PM 45.3780 -85.3240 34° Northeast 461 531 33,000  Level FlightAware
11:47PM 45.4490 -85.2560 34° Northeast 463 533 33,000  Level FlightAware
11:48PM 45.5320 -85.1770 34° Northeast 465 535 33,000  Level FlightAware
11:49PM 45.6030 -85.1080 34° Northeast 465 535 33,000  Level FlightAware
11:50PM 45.6730 -85.0400 34° Northeast 465 535 33,000  Level FlightAware
11:50PM 45.7530 -84.9640 34° Northeast 465 535 33,000  Level FlightAware
11:51PM 45.8230 -84.8950 34° Northeast 466 536 33,000  Level FlightAware
11:52PM 45.9060 -84.8150 34° Northeast 467 537 33,000  Level FlightAware
11:52PM 45.9770 -84.7450 34° Northeast 466 536 33,000  Level FlightAware
11:53PM 46.0550 -84.6690 34° Northeast 465 535 33,000  Level FlightAware
11:54PM 46.1270 -84.5980 34° Northeast 465 535 33,000  Level FlightAware
11:55PM 46.2070 -84.5180 35° Northeast 467 537 33,000  Level FlightAware
11:55PM 46.2790 -84.4470 34° Northeast 469 540 33,000  Level FlightAware
11:56PM 46.3510 -84.3760 34° Northeast 471 542 33,000  Level FlightAware
11:57PM 46.4250 -84.2890 39° Northeast 476 548 33,000  Level FlightAware
11:57PM 46.4860 -84.1950 47° Northeast 476 548 33,000  Level FlightAware
11:58PM 46.5460 -84.1020 47° Northeast 475 547 33,000  Level FlightAware
11:59PM 46.6120 -83.9990 47° Northeast 475 547 33,000  Level FlightAware
11:59PM 46.6730 -83.9030 47° Northeast 477 549 33,000  Level FlightAware
12:00AM 46.7320 -83.8090 47° Northeast 477 549 33,000  Level FlightAware
12:01AM 46.7990 -83.7000 48° Northeast 478 550 33,000  Level FlightAware
12:01AM 46.8590 -83.6040 48° Northeast 480 552 33,000  Level FlightAware
12:02AM 46.9250 -83.4990 47° Northeast 482 555 33,000  Level FlightAware
12:03AM 46.9850 -83.4010 48° Northeast 481 554 33,000  Level FlightAware
12:04AM 47.0530 -83.2910 48° Northeast 480 552 33,000  Level FlightAware
12:04AM 47.1120 -83.1930 48° Northeast 480 552 33,000  Level FlightAware
12:05AM 47.1710 -83.0970 48° Northeast 480 552 33,000  Level FlightAware
12:06AM 47.2370 -82.9900 48° Northeast 482 555 33,000  Level FlightAware
12:06AM 47.2960 -82.8920 48° Northeast 483 556 33,000  Level FlightAware
12:07AM 47.3640 -82.7790 48° Northeast 483 556 33,000  Level FlightAware
12:08AM 47.4230 -82.6800 49° Northeast 484 557 33,000  Level FlightAware
12:08AM 47.4830 -82.5810 48° Northeast 486 559 33,000  Level FlightAware
12:09AM 47.5480 -82.4710 49° Northeast 491 565 33,000  Level FlightAware
12:10AM 47.6050 -82.3760 48° Northeast 493 567 33,000  Level FlightAware
12:11AM 47.6750 -82.2580 49° Northeast 495 570 33,000  Level FlightAware
12:11AM 47.7340 -82.1580 49° Northeast 496 571 33,000  Level FlightAware
12:12AM 47.7820 -82.0780 48° Northeast 496 571 33,000  Level FlightAware
12:13AM 47.8470 -81.9700 48° Northeast 496 571 33,000  Level FlightAware
12:13AM 47.8990 -81.8840 48° Northeast 496 571 33,000  Level FlightAware
12:14AM 47.9510 -81.7970 48° Northeast 496 571 33,000  Level FlightAware
12:15AM 48.0040 -81.7110 47° Northeast 496 571 33,000  Level FlightAware
12:15AM 48.0560 -81.6240 48° Northeast 496 571 33,000  Level FlightAware
12:16AM 48.1210 -81.5160 48° Northeast 496 571 33,000  Level FlightAware
12:17AM 48.1730 -81.4290 48° Northeast 496 571 33,000  Level FlightAware
12:18AM 48.2260 -81.3420 48° Northeast 496 571 33,000  Level FlightAware
12:18AM 48.2780 -81.2550 48° Northeast 496 571 33,000  Level FlightAware
12:19AM 48.3300 -81.1670 48° Northeast 496 571 33,000  Level FlightAware
12:20AM 48.3950 -81.0580 48° Northeast 496 571 33,000  Level FlightAware
12:20AM 48.4470 -80.9710 48° Northeast 496 571 33,000  Level FlightAware
12:21AM 48.4870 -80.9050 48° Northeast 496 571 33,000  Level FlightAware
12:21AM 48.6333 -80.5667 48° Northeast 510 587 33,000  Level Montreal Center
12:22AM 48.7333 -80.4000 48° Northeast 500 575 33,000  Level Montreal Center
12:23AM 48.8167 -80.2500 50° Northeast 500 575 33,000  Level Montreal Center
12:24AM 48.9167 -80.0667 50° Northeast 500 575 33,000  Level Montreal Center
12:25AM 49.0000 -79.9167 50° Northeast 510 587 33,000  Level Montreal Center
12:26AM 49.0833 -79.7333 55° Northeast 500 575 33,000  Level Montreal Center
12:27AM 49.1833 -79.5667 47° Northeast 510 587 33,000  Level Montreal Center
12:28AM 49.2667 -79.4000 52° Northeast 510 587 33,000  Level Montreal Center
12:29AM 49.3500 -79.2167 55° Northeast 510 587 33,000  Level Montreal Center
12:30AM 49.4500 -79.0667 44° Northeast 510 587 33,000  Level Montreal Center
12:31AM 49.5333 -78.9000 52° Northeast 500 575 33,000  Level Montreal Center
12:32AM 49.6167 -78.7167 55° Northeast 510 587 33,000  Level Montreal Center
12:33AM 49.7167 -78.5333 50° Northeast 510 587 33,000  Level Montreal Center
12:34AM 49.8167 -78.3667 47° Northeast 510 587 33,000  Level Montreal Center
12:35AM 49.9000 -78.2167 49° Northeast 510 587 33,000  Level Montreal Center
12:36AM 49.9833 -78.0000 59° Northeast 510 587 33,000  Level Montreal Center
12:37AM 50.0833 -77.8500 44° Northeast 520 598 33,000  Level Montreal Center
12:38AM 50.1667 -77.6667 55° Northeast 510 587 33,000  Level Montreal Center
12:39AM 50.2500 -77.4833 55° Northeast 510 587 33,000  Level Montreal Center
12:40AM 50.3500 -77.3333 44° Northeast 520 598 33,000  Level Montreal Center
12:41AM 50.4333 -77.1500 54° Northeast 520 598 33,000  Level Montreal Center
12:42AM 50.5333 -76.9667 49° Northeast 520 598 33,000  Level Montreal Center
12:43AM 50.6333 -76.7833 49° Northeast 510 587 33,000  Level Montreal Center
12:44AM 50.7167 -76.6000 54° Northeast 520 598 33,000  Level Montreal Center
12:45AM 50.8000 -76.4500 49° Northeast 520 598 33,000  Level Montreal Center
12:46AM 50.8833 -76.2667 54° Northeast 520 598 33,000  Level Montreal Center
12:47AM 50.9833 -76.0667 51° Northeast 520 598 33,000  Level Montreal Center
12:48AM 51.0667 -75.8833 54° Northeast 520 598 33,000  Level Montreal Center
12:49AM 51.1500 -75.7000 54° Northeast 520 598 33,000  Level Montreal Center
12:50AM 51.2500 -75.5000 51° Northeast 520 598 33,000  Level Montreal Center
12:51AM 51.3333 -75.3167 54° Northeast 520 598 33,000  Level Montreal Center
12:52AM 51.4333 -75.1333 49° Northeast 530 610 33,000  Level Montreal Center
12:53AM 51.5167 -74.9333 56° Northeast 530 610 33,000  Level Montreal Center
12:54AM 51.6000 -74.7667 51° Northeast 530 610 33,000  Level Montreal Center
12:55AM 51.7000 -74.5500 53° Northeast 530 610 33,000  Level Montreal Center
12:56AM 51.7833 -74.3833 51° Northeast 530 610 33,000  Level Montreal Center
12:57AM 51.8833 -74.1667 53° Northeast 530 610 33,000  Level Montreal Center
12:58AM 51.9667 -74.0000 51° Northeast 530 610 33,000  Level Montreal Center
12:59AM 52.0500 -73.7667 60° Northeast 530 610 33,000  Level Montreal Center
01:00AM 52.1333 -73.6000 51° Northeast 530 610 33,000  Level Montreal Center
01:01AM 52.2167 -73.4167 53° Northeast 540 621 33,000  Level Montreal Center
01:02AM 52.3167 -73.1833 55° Northeast 530 610 33,000  Level Montreal Center
01:03AM 52.4000 -72.9833 56° Northeast 540 621 33,000  Level Montreal Center
01:04AM 52.4833 -72.7833 56° Northeast 540 621 33,000  Level Montreal Center
01:05AM 52.5667 -72.5833 56° Northeast 540 621 33,000  Level Montreal Center
01:06AM 52.6667 -72.3833 50° Northeast 540 621 33,000  Level Montreal Center
01:07AM 52.7333 -72.1833 61° Northeast 540 621 33,000  Level Montreal Center
01:08AM 52.8333 -71.9833 50° Northeast 540 621 33,000  Level Montreal Center
01:09AM 52.9167 -71.7667 57° Northeast 540 621 33,000  Level Montreal Center
01:10AM 53.0000 -71.5667 55° Northeast 540 621 33,000  Level Montreal Center
01:11AM 53.0833 -71.3667 55° Northeast 540 621 33,000  Level Montreal Center
01:12AM 53.1667 -71.1500 57° Northeast 540 621 33,000  Level Montreal Center
01:13AM 53.2500 -70.9167 59° Northeast 540 621 33,000  Level Montreal Center
01:14AM 53.3333 -70.7167 55° Northeast 550 633 33,000  Level Montreal Center
01:15AM 53.4167 -70.5000 57° Northeast 550 633 33,000  Level Montreal Center
01:16AM 53.5000 -70.3000 55° Northeast 550 633 33,000  Level Montreal Center
01:17AM 53.6000 -70.1167 47° Northeast 550 633 33,000  Level Gander Center
01:18AM 53.6833 -69.9000 57° Northeast 550 633 33,000  Level Gander Center
01:19AM 53.7500 -69.7000 61° Northeast 550 633 33,000  Level Gander Center
01:20AM 53.8333 -69.4500 60° Northeast 550 633 33,000  Level Gander Center
01:21AM 53.9167 -69.2333 57° Northeast 550 633 33,000  Level Gander Center
01:22AM 54.0000 -69.0000 59° Northeast 560 644 33,000  Level Gander Center
01:23AM 54.0833 -68.7833 57° Northeast 550 633 33,000  Level Gander Center
01:24AM 54.1500 -68.5333 65° Northeast 560 644 33,000  Level Gander Center
01:25AM 54.2000 -68.2833 71° East 560 644 33,000  Level Gander Center
01:26AM 54.2667 -68.0500 64° Northeast 560 644 33,000  Level Gander Center
01:27AM 54.3333 -67.8000 65° Northeast 560 644 33,000  Level Gander Center
01:28AM 54.3833 -67.5667 70° East 560 644 33,000  Level Gander Center
01:29AM 54.4500 -67.3167 65° Northeast 560 644 33,000  Level Gander Center
01:30AM 54.5167 -67.0667 65° Northeast 560 644 33,000  Level Gander Center
01:31AM 54.5833 -66.8167 65° Northeast 570 656 33,000  Level Gander Center
01:32AM 54.6333 -66.5667 71° East 570 656 33,000  Level Gander Center
01:33AM 54.7000 -66.3167 65° Northeast 570 656 33,000  Level Gander Center
01:34AM 54.7500 -66.0667 71° East 570 656 33,000  Level Gander Center
01:35AM 54.8167 -65.8000 66° East 570 656 33,000  Level Gander Center
01:36AM 54.8833 -65.5500 65° Northeast 570 656 33,000  Level Gander Center
01:37AM 54.9333 -65.3000 71° East 570 656 33,000  Level Gander Center
01:38AM 55.0000 -65.0333 66° East 570 656 33,000  Level Gander Center
01:39AM 55.0500 -64.7500 73° East 570 656 33,000  Level Gander Center
01:40AM 55.1000 -64.5167 69° East 570 656 33,000  Level Gander Center
01:41AM 55.1667 -64.2667 65° Northeast 570 656 33,000  Level Gander Center
01:42AM 55.2167 -63.9833 73° East 570 656 33,000  Level Gander Center
01:43AM 55.2833 -63.7500 63° Northeast 570 656 33,000  Level Gander Center
01:44AM 55.3333 -63.4500 74° East 570 656 33,000  Level Gander Center
01:45AM 55.3833 -63.2000 71° East 580 667 33,000  Level Gander Center
01:46AM 55.4333 -62.9333 72° East 570 656 33,000  Level Gander Center
01:47AM 55.5000 -62.6667 66° East 580 667 33,000  Level Gander Center
01:48AM 55.5500 -62.4000 72° East 570 656 33,000  Level Gander Center
01:49AM 55.5833 -62.2333 70° East 570 656 33,000  Level Gander Center
01:50AM 55.6333 -61.9667 72° East 570 656 33,000  Level Gander Center
01:50AM 55.6500 -61.8667 74° East 570 656 33,000  Level Gander Center
01:51AM 55.7000 -61.6000 71° East 570 656 33,000  Level Gander Center
01:52AM 55.7500 -61.3333 71° East 570 656 33,000  Level Gander Center
01:53AM 55.8000 -61.0667 71° East 570 656 33,000  Level Gander Center
01:54AM 55.8333 -60.9000 70° East 570 656 33,100 360 Climbing Gander Center
01:54AM 55.8500 -60.8000 73° East 570 656 33,400 900 Climbing Gander Center
01:55AM 55.9000 -60.5333 71° East 570 656 34,300 600 Climbing Gander Center
01:56AM 55.9500 -60.2667 71° East 560 644 34,700 360 Climbing Gander Center
01:57AM 55.9833 -60.1167 68° East 560 644 35,000 300 Climbing Gander Center
01:57AM 56.0000 -60.0333 70° East 560 644 35,000  Level Gander Center
01:58AM 56.0500 -59.7500 72° East 560 644 35,000  Level Gander Center
01:59AM 56.0667 -59.5833 80° East 560 644 35,000  Level Gander Center
01:59AM 56.0833 -59.4833 73° East 560 644 35,000  Level Gander Center
02:00AM 56.1333 -59.2167 71° East 560 644 35,000  Level Gander Center
02:01AM 56.1667 -59.0333 72° East 560 644 35,000  Level Gander Center
02:02AM 56.2000 -58.7667 77° East 560 644 35,000  Level Gander Center
02:02AM 56.2333 -58.6667 59° Northeast 560 644 35,000  Level Gander Center
02:03AM 56.2500 -58.4833 81° East 570 656 35,000  Level Gander Center
02:03AM 56.2500 -58.4000 90° East 560 644 35,000  Level Gander Center
02:04AM 56.3167 -58.1167 67° East 570 656 35,000  Level Gander Center
02:05AM 56.3333 -57.8500 83° East 560 644 35,000  Level Gander Center
02:06AM 56.3167 -58.0667 78° East 557 641 35,000  Level ETMS Enhanced Traffic Management System
02:06AM 56.3667 -57.5667 78° East 570 656 35,000  Level Gander Center
02:07AM 56.4000 -57.3000 77° East 560 644 35,000  Level Gander Center
02:08AM 56.4333 -57.0167 78° East 560 644 35,000  Level Gander Center
02:09AM 56.4667 -56.7500 77° East 560 644 35,000  Level Gander Center
02:10AM 56.4833 -56.5667 81° East 560 644 35,000  Level Gander Center
02:11AM 56.3167 -58.0667 78° East 557 641 35,000  Level ETMS Enhanced Traffic Management System
02:11AM 56.5167 -56.2000 78° East 560 644 35,000  Level Gander Center
02:12AM 56.5500 -56.0167 72° East 560 644 35,000  Level Gander Center
02:12AM 56.5500 -55.8833 90° East 570 656 35,000  Level Gander Center
02:13AM 56.5667 -55.7333 79° East 580 667 35,000  Level Gander Center
02:13AM 56.5833 -55.6167 75° East 570 656 35,000  Level Gander Center
02:14AM 56.6000 -55.3667 83° East 570 656 35,000  Level Gander Center
02:15AM 56.6167 -55.1167 83° East 570 656 35,000  Level Gander Center
02:16AM 56.6500 -54.8333 78° East 560 644 35,000  Level Gander Center
02:18AM 56.7000 -54.3167 80° East 580 667 35,000  Level Gander Center
02:18AM 56.7000 -54.2500 90° East 580 667 35,000  Level Gander Center
02:19AM 56.7333 -53.9667 78° East 570 656 35,000  Level Gander Center
02:20AM 56.7500 -53.7000 83° East 550 633 35,000  Level Gander Center
02:21AM 56.7833 -53.4167 78° East 580 667 35,000  Level Gander Center
02:22AM 56.8167 -53.1667 76° East 570 656 35,000  Level Gander Center
02:23AM 56.8167 -52.8167 90° East 580 667 35,000  Level Gander Center
02:24AM 56.8167 -52.5500 90° East 580 667 35,000  Level Gander Center
02:26AM 56.8382 -52.2852 81° East  Level FlightAware Approximate
02:33AM 56.9621 -50.5934 82° East  Level FlightAware Approximate
02:34AM 56.9780 -50.3508 83° East  Level FlightAware Approximate
02:35AM 56.9933 -50.1081 83° East  Level FlightAware Approximate
02:35AM 57.0000 -50.0000 86° East 544 626 35,000  Level ETMS Enhanced Traffic Management System
02:36AM 57.0053 -49.8642 86° East  Level FlightAware Approximate
02:37AM 57.0146 -49.6202 86° East  Level FlightAware Approximate
02:38AM 57.0234 -49.3761 86° East  Level FlightAware Approximate
02:39AM 57.0317 -49.1319 86° East  Level FlightAware Approximate
02:40AM 57.0395 -48.8876 87° East  Level FlightAware Approximate
02:41AM 57.0624 -48.0590 87° East 544 626 35,000  Level FlightAware Transoceanic
02:42AM 57.0689 -47.7812 88° East 544 626 35,000  Level FlightAware Transoceanic
02:43AM 57.0747 -47.5034 88° East 544 626 35,000  Level FlightAware Transoceanic
02:44AM 57.0800 -47.2254 88° East 544 626 35,000  Level FlightAware Transoceanic
02:45AM 57.0846 -46.9474 88° East 544 626 35,000  Level FlightAware Transoceanic
02:46AM 57.0886 -46.6693 89° East 544 626 35,000  Level FlightAware Transoceanic
02:47AM 57.0920 -46.3912 89° East 544 626 35,000  Level FlightAware Transoceanic
02:48AM 57.0948 -46.1130 89° East 544 626 35,000  Level FlightAware Transoceanic
02:49AM 57.0969 -45.8348 89° East 544 626 35,000  Level FlightAware Transoceanic
02:50AM 57.0985 -45.5565 90° East 544 626 35,000  Level FlightAware Transoceanic
02:51AM 57.0994 -45.2783 90° East 544 626 35,000  Level FlightAware Transoceanic
02:52AM 57.0997 -45.0000 90° East 544 626 35,000  Level FlightAware Transoceanic
02:53AM 57.0994 -44.7217 90° East 544 626 35,000  Level FlightAware Transoceanic
02:54AM 57.0985 -44.4435 90° East 544 626 35,000  Level FlightAware Transoceanic
02:55AM 57.0969 -44.1652 91° East 544 626 35,000  Level FlightAware Transoceanic
02:56AM 57.0948 -43.8870 91° East 544 626 35,000  Level FlightAware Transoceanic
02:57AM 57.0920 -43.6088 91° East 544 626 35,000  Level FlightAware Transoceanic
02:58AM 57.0886 -43.3307 91° East 544 626 35,000  Level FlightAware Transoceanic
02:59AM 57.0846 -43.0526 92° East 544 626 35,000  Level FlightAware Transoceanic
03:00AM 57.0800 -42.7746 92° East 544 626 35,000  Level FlightAware Transoceanic
03:01AM 57.0747 -42.4966 92° East 544 626 35,000  Level FlightAware Transoceanic
03:02AM 57.0689 -42.2188 92° East 544 626 35,000  Level FlightAware Transoceanic
03:03AM 57.0624 -41.9410 93° East 544 626 35,000  Level FlightAware Transoceanic
03:04AM 57.0554 -41.6633 93° East 544 626 35,000  Level FlightAware Transoceanic
03:05AM 57.0477 -41.3858 93° East 544 626 35,000  Level FlightAware Transoceanic
03:06AM 57.0393 -41.1084 93° East 544 626 35,000  Level FlightAware Transoceanic
03:07AM 57.0304 -40.8311 93° East 544 626 35,000  Level FlightAware Transoceanic
03:08AM 57.0209 -40.5539 94° East 544 626 35,000  Level FlightAware Transoceanic
03:09AM 57.0108 -40.2769 94° East 544 626 35,000  Level FlightAware Transoceanic
03:10AM 57.0013 -40.0330 94° East  Level FlightAware Approximate
03:11AM 56.9914 -39.7892 94° East  Level FlightAware Approximate
03:12AM 56.9896 -39.8226 96° East  Level FlightAware Approximate
03:12AM 57.0000 -40.0000 96° East 492 566 35,000  Level ETMS Enhanced Traffic Management System
03:13AM 56.9749 -39.5797 96° East  Level FlightAware Approximate
03:14AM 56.9598 -39.3370 96° East  Level FlightAware Approximate
03:15AM 56.9442 -39.0945 97° East  Level FlightAware Approximate
03:16AM 56.9281 -38.8522 97° East  Level FlightAware Approximate
03:17AM 56.9116 -38.6102 97° East  Level FlightAware Approximate
03:18AM 56.8946 -38.3683 97° East  Level FlightAware Approximate
03:19AM 56.8685 -38.0104 98° East 492 566 35,000  Level FlightAware Transoceanic
03:20AM 56.8499 -37.7627 98° East 492 566 35,000  Level FlightAware Transoceanic
03:21AM 56.8307 -37.5153 98° East 492 566 35,000  Level FlightAware Transoceanic
03:22AM 56.8111 -37.2681 98° East 492 566 35,000  Level FlightAware Transoceanic
03:23AM 56.7910 -37.0212 99° East 492 566 35,000  Level FlightAware Transoceanic
03:24AM 56.7704 -36.7746 99° East 492 566 35,000  Level FlightAware Transoceanic
03:25AM 56.7493 -36.5282 99° East 492 566 35,000  Level FlightAware Transoceanic
03:26AM 56.7277 -36.2821 99° East 492 566 35,000  Level FlightAware Transoceanic
03:27AM 56.7057 -36.0363 99° East 492 566 35,000  Level FlightAware Transoceanic
03:28AM 56.6831 -35.7908 100° East 492 566 35,000  Level FlightAware Transoceanic
03:29AM 56.6601 -35.5456 100° East 492 566 35,000  Level FlightAware Transoceanic
03:30AM 56.6366 -35.3007 100° East 492 566 35,000  Level FlightAware Transoceanic
03:31AM 56.6126 -35.0561 100° East 492 566 35,000  Level FlightAware Transoceanic
03:32AM 56.5882 -34.8118 100° East 492 566 35,000  Level FlightAware Transoceanic
03:33AM 56.5632 -34.5678 101° East 492 566 35,000  Level FlightAware Transoceanic
03:34AM 56.5378 -34.3242 101° East 492 566 35,000  Level FlightAware Transoceanic
03:35AM 56.5119 -34.0809 101° East 492 566 35,000  Level FlightAware Transoceanic
03:36AM 56.4855 -33.8379 101° East 492 566 35,000  Level FlightAware Transoceanic
03:37AM 56.4587 -33.5953 101° East 492 566 35,000  Level FlightAware Transoceanic
03:38AM 56.4314 -33.3530 102° East 492 566 35,000  Level FlightAware Transoceanic
03:39AM 56.4036 -33.1110 102° East 492 566 35,000  Level FlightAware Transoceanic
03:40AM 56.3753 -32.8695 102° East 492 566 35,000  Level FlightAware Transoceanic
03:41AM 56.3466 -32.6282 102° East 492 566 35,000  Level FlightAware Transoceanic
03:42AM 56.3174 -32.3874 102° East 492 566 35,000  Level FlightAware Transoceanic
03:43AM 56.2877 -32.1469 103° East 492 566 35,000  Level FlightAware Transoceanic
03:44AM 56.2576 -31.9068 103° East 492 566 35,000  Level FlightAware Transoceanic
03:45AM 56.2270 -31.6671 103° East 492 566 35,000  Level FlightAware Transoceanic
03:46AM 56.1960 -31.4277 103° East 492 566 35,000  Level FlightAware Transoceanic
03:47AM 56.1645 -31.1888 103° East 492 566 35,000  Level FlightAware Transoceanic
03:48AM 56.1325 -30.9502 104° East 492 566 35,000  Level FlightAware Transoceanic
03:49AM 56.1000 -30.7120 104° East 492 566 35,000  Level FlightAware Transoceanic
03:50AM 56.0672 -30.4743 104° East 492 566 35,000  Level FlightAware Transoceanic
03:51AM 56.0338 -30.2369 104° East 492 566 35,000  Level FlightAware Transoceanic
03:52AM 56.0009 -30.0061 104° East  Level FlightAware Approximate
03:53AM 55.9674 -29.7757 104° East  Level FlightAware Approximate
03:53AM 56.0000 -30.0000 96° East 470 541 35,000  Level ETMS Enhanced Traffic Management System
03:54AM 55.9867 -29.7757 96° East  Level FlightAware Approximate
03:55AM 55.9722 -29.5392 96° East  Level FlightAware Approximate
03:56AM 55.9572 -29.3027 96° East  Level FlightAware Approximate
03:57AM 55.9418 -29.0665 97° East  Level FlightAware Approximate
03:58AM 55.9260 -28.8305 97° East  Level FlightAware Approximate
03:59AM 55.9097 -28.5946 97° East  Level FlightAware Approximate
04:00AM 55.8793 -28.1469 97° East 470 541 35,000  Level FlightAware Transoceanic
04:01AM 55.8623 -27.9162 98° East 470 541 35,000  Level FlightAware Transoceanic
04:02AM 55.8448 -27.6856 98° East 470 541 35,000  Level FlightAware Transoceanic
04:03AM 55.8270 -27.4552 98° East 470 541 35,000  Level FlightAware Transoceanic
04:04AM 55.8086 -27.2251 98° East 470 541 35,000  Level FlightAware Transoceanic
04:05AM 55.7899 -26.9951 98° East 470 541 35,000  Level FlightAware Transoceanic
04:06AM 55.7707 -26.7654 99° East 470 541 35,000  Level FlightAware Transoceanic
04:07AM 55.7511 -26.5359 99° East 470 541 35,000  Level FlightAware Transoceanic
04:08AM 55.7310 -26.3067 99° East 470 541 35,000  Level FlightAware Transoceanic
04:09AM 55.7106 -26.0777 99° East 470 541 35,000  Level FlightAware Transoceanic
04:10AM 55.6897 -25.8489 99° East 470 541 35,000  Level FlightAware Transoceanic
04:11AM 55.6684 -25.6204 99° East 470 541 35,000  Level FlightAware Transoceanic
04:12AM 55.6466 -25.3921 100° East 470 541 35,000  Level FlightAware Transoceanic
04:13AM 55.6245 -25.1641 100° East 470 541 35,000  Level FlightAware Transoceanic
04:14AM 55.6019 -24.9363 100° East 470 541 35,000  Level FlightAware Transoceanic
04:15AM 55.5789 -24.7089 100° East 470 541 35,000  Level FlightAware Transoceanic
04:16AM 55.5555 -24.4816 100° East 470 541 35,000  Level FlightAware Transoceanic
04:17AM 55.5316 -24.2547 101° East 470 541 35,000  Level FlightAware Transoceanic
04:18AM 55.5073 -24.0280 101° East 470 541 35,000  Level FlightAware Transoceanic
04:19AM 55.4827 -23.8016 101° East 470 541 35,000  Level FlightAware Transoceanic
04:20AM 55.4576 -23.5755 101° East 470 541 35,000  Level FlightAware Transoceanic
04:21AM 55.4320 -23.3497 101° East 470 541 35,000  Level FlightAware Transoceanic
04:22AM 55.4061 -23.1242 102° East 470 541 35,000  Level FlightAware Transoceanic
04:23AM 55.3798 -22.8990 102° East 470 541 35,000  Level FlightAware Transoceanic
04:24AM 55.3530 -22.6740 102° East 470 541 35,000  Level FlightAware Transoceanic
04:25AM 55.3258 -22.4494 102° East 470 541 35,000  Level FlightAware Transoceanic
04:26AM 55.2982 -22.2251 102° East 470 541 35,000  Level FlightAware Transoceanic
04:27AM 55.2702 -22.0012 102° East 470 541 35,000  Level FlightAware Transoceanic
04:28AM 55.2418 -21.7775 103° East 470 541 35,000  Level FlightAware Transoceanic
04:29AM 55.2130 -21.5541 103° East 470 541 35,000  Level FlightAware Transoceanic
04:30AM 55.1838 -21.3311 103° East 470 541 35,000  Level FlightAware Transoceanic
04:31AM 55.1542 -21.1084 103° East 470 541 35,000  Level FlightAware Transoceanic
04:32AM 55.1241 -20.8860 103° East 470 541 35,000  Level FlightAware Transoceanic
04:33AM 55.0937 -20.6640 104° East 470 541 35,000  Level FlightAware Transoceanic
04:34AM 55.0629 -20.4423 104° East 470 541 35,000  Level FlightAware Transoceanic
04:35AM 55.0316 -20.2210 104° East 470 541 35,000  Level FlightAware Transoceanic
04:36AM 54.9994 -19.9957 104° East  Level FlightAware Approximate
04:37AM 54.9994 -19.9911 97° East  Level FlightAware Approximate
04:38AM 54.9824 -19.7609 97° East  Level FlightAware Approximate
04:39AM 54.9650 -19.5309 97° East  Level FlightAware Approximate
04:40AM 54.9472 -19.3011 98° East  Level FlightAware Approximate
04:41AM 54.9290 -19.0714 98° East  Level FlightAware Approximate
04:42AM 54.9103 -18.8420 98° East  Level FlightAware Approximate
04:43AM 54.8912 -18.6129 98° East  Level FlightAware Approximate
04:44AM 54.8716 -18.3839 98° East  Level FlightAware Approximate
04:45AM 54.8517 -18.1551 99° East  Level FlightAware Approximate
04:46AM 54.8312 -17.9266 99° East  Level FlightAware Approximate
04:47AM 54.8104 -17.6983 99° East  Level FlightAware Approximate
04:48AM 54.7892 -17.4703 99° East  Level FlightAware Approximate
04:49AM 54.7675 -17.2425 99° East  Level FlightAware Approximate
04:50AM 54.7453 -17.0149 99° East  Level FlightAware Approximate
04:51AM 54.7228 -16.7876 100° East  Level FlightAware Approximate
04:52AM 54.6998 -16.5606 100° East  Level FlightAware Approximate
04:53AM 54.6765 -16.3337 100° East  Level FlightAware Approximate
04:54AM 54.6530 -16.1071 100° East  Level FlightAware Approximate
04:55AM 54.6291 -15.8808 100° East  Level FlightAware Approximate
04:56AM 54.6047 -15.6547 100° East  Level FlightAware Approximate
04:57AM 54.5799 -15.4289 101° East  Level FlightAware Approximate
04:58AM 54.5547 -15.2034 101° East  Level FlightAware Approximate
04:59AM 54.5291 -14.9781 101° East  Level FlightAware Approximate
05:00AM 54.5030 -14.7531 101° East  Level FlightAware Approximate
05:01AM 54.4765 -14.5285 101° East  Level FlightAware Approximate
05:02AM 54.4497 -14.3041 102° East  Level FlightAware Approximate
05:03AM 54.4224 -14.0800 102° East  Level FlightAware Approximate
05:04AM 54.3946 -13.8562 102° East  Level FlightAware Approximate
05:04AM 54.5900 -13.7050 102° East 486 559 36,400  Level FlightAware
05:05AM 54.3665 -13.6327 102° East  Level FlightAware Approximate
05:05AM 54.5290 -13.5680 127° Southeast 483 556 36,700  Level FlightAware
05:05AM 54.4810 -13.4600 127° Southeast 483 556 36,900 180 Climbing FlightAware
05:06AM 54.4130 -13.3060 127° Southeast 487 560 37,000 60 Climbing FlightAware
05:07AM 54.3540 -13.1740 127° Southeast 482 555 37,000  Level FlightAware
05:08AM 54.2830 -13.0180 128° Southeast 485 558 37,000  Level FlightAware
05:09AM 54.2270 -12.8940 128° Southeast 485 558 37,000  Level FlightAware
05:09AM 54.1730 -12.7740 128° Southeast 486 559 37,000  Level FlightAware
05:10AM 54.1110 -12.6400 128° Southeast 486 559 37,000  Level FlightAware
05:11AM 54.0450 -12.4950 128° Southeast 491 565 37,000  Level FlightAware
05:11AM 53.9960 -12.3900 128° Southeast 492 566 37,000  Level FlightAware
05:12AM 53.9320 -12.2520 128° Southeast 492 566 37,000  Level FlightAware
05:13AM 53.8690 -12.1180 129° Southeast 491 565 37,000  Level FlightAware
05:13AM 53.8120 -11.9960 128° Southeast 491 565 37,000  Level FlightAware
05:15AM 53.6970 -11.7530 129° Southeast 494 568 37,000  Level FlightAware
05:16AM 53.6370 -11.6270 129° Southeast 491 565 37,000  Level FlightAware
05:16AM 53.5730 -11.4920 129° Southeast 491 565 37,000  Level FlightAware
05:17AM 53.5150 -11.3730 129° Southeast 491 565 37,000  Level FlightAware
05:18AM 53.4540 -11.2470 129° Southeast 493 567 37,000  Level FlightAware
05:18AM 53.3920 -11.1180 129° Southeast 494 568 37,000  Level FlightAware
05:19AM 53.3340 -10.9990 129° Southeast 493 567 37,000  Level FlightAware
05:20AM 53.2660 -10.8620 130° Southeast 491 565 37,000  Level FlightAware
05:20AM 53.2100 -10.7490 130° Southeast 490 564 37,000  Level FlightAware
05:21AM 53.1440 -10.6150 129° Southeast 487 560 37,000  Level FlightAware
05:22AM 53.0850 -10.4960 130° Southeast 487 560 37,000  Level FlightAware
05:23AM 53.0200 -10.3670 130° Southeast 488 562 37,000  Level FlightAware
05:23AM 52.9610 -10.2500 130° Southeast 489 563 37,000  Level FlightAware
05:24AM 52.8960 -10.1200 130° Southeast 489 563 37,000  Level FlightAware
05:25AM 52.8360 -10.0040 131° Southeast 488 562 37,000  Level FlightAware
05:25AM 52.7780 -9.8890 130° Southeast 486 559 37,000  Level FlightAware
05:26AM 52.7160 -9.7690 130° Southeast 485 558 37,000  Level FlightAware
05:27AM 52.6670 -9.6740 130° Southeast 489 563 37,000  Level FlightAware
05:28AM 52.5910 -9.5260 130° Southeast 483 556 37,000  Level FlightAware
05:28AM 52.5330 -9.4160 131° Southeast 482 555 37,000  Level FlightAware
05:29AM 52.4740 -9.3020 130° Southeast 483 556 37,000  Level FlightAware
05:30AM 52.4160 -9.1920 131° Southeast 481 554 37,000  Level FlightAware
05:30AM 52.3490 -9.0650 131° Southeast 489 563 37,000 -1,320 Level FlightAware
05:31AM 52.2945 -8.9623 131° Southeast 468 539 35,400  Descending FlightAware UK
05:31AM 52.2820 -8.9400 131° Southeast 489 563 37,000 180 Climbing FlightAware
05:31AM 52.2498 -8.8782 131° Southeast 468 539 35,500 -2,700 Descending FlightAware UK
05:32AM 52.2233 -8.8283 131° Southeast 470 541 35,500 3,720 Level FlightAware UK
05:32AM 52.2240 -8.8300 131° Southeast 489 563 37,000  Climbing FlightAware
05:32AM 52.1876 -8.7617 131° Southeast 466 536 35,500 -2,520 Descending FlightAware UK
05:32AM 52.1607 -8.7116 131° Southeast 470 541 35,500 4,080 Level FlightAware UK
05:32AM 52.1630 -8.7170 131° Southeast 491 565 37,000  Climbing FlightAware
05:33AM 52.1251 -8.6449 131° Southeast 470 541 35,500 -2,400 Descending FlightAware UK
05:33AM 52.0981 -8.5950 131° Southeast 470 541 35,500 4,500 Level FlightAware UK
05:33AM 52.1040 -8.6060 131° Southeast 491 565 37,000  Climbing FlightAware
05:33AM 52.0711 -8.5451 131° Southeast 476 548 35,500 -2,700 Descending FlightAware UK
05:34AM 52.0442 -8.4953 131° Southeast 472 543 35,500 3,060 Level FlightAware UK
05:34AM 52.0360 -8.4810 131° Southeast 491 565 37,000  Climbing FlightAware
05:34AM 51.9992 -8.4124 131° Southeast 466 536 35,500 -2,460 Descending FlightAware UK
05:34AM 51.9722 -8.3628 131° Southeast 468 539 35,500 3,420 Level FlightAware UK
05:35AM 51.9740 -8.3680 131° Southeast 492 566 37,000  Climbing FlightAware
05:35AM 51.9361 -8.2967 131° Southeast 470 541 35,500 -2,700 Descending FlightAware UK
05:35AM 51.9089 -8.2464 131° Southeast 468 539 35,500 3,720 Level FlightAware UK
05:35AM 51.9060 -8.2420 131° Southeast 493 567 37,000  Climbing FlightAware
05:36AM 51.8727 -8.1803 131° Southeast 470 541 35,500 -2,520 Descending FlightAware UK
05:36AM 51.8454 -8.1308 132° Southeast 472 543 35,500 3,300 Level FlightAware UK
05:36AM 51.8390 -8.1200 132° Southeast 495 570 37,000  Climbing FlightAware
05:36AM 51.8000 -8.0482 132° Southeast 474 545 35,500  Descending FlightAware UK
05:36AM 51.7930 -8.0380 132° Southeast 495 570 37,000  Climbing FlightAware
05:37AM 51.7636 -7.9821 132° Southeast 472 543 35,500 -2,760 Descending FlightAware UK
05:37AM 51.7363 -7.9326 132° Southeast 472 543 35,500 2,520 Level FlightAware UK
05:37AM 51.7180 -7.9000 132° Southeast 494 568 37,000  Climbing FlightAware
05:38AM 51.6816 -7.8340 132° Southeast 470 541 35,500 -2,460 Descending FlightAware UK
05:38AM 51.6542 -7.7849 132° Southeast 472 543 35,500 3,420 Level FlightAware UK
05:38AM 51.6470 -7.7740 132° Southeast 494 568 37,000  Climbing FlightAware
05:38AM 51.6176 -7.7197 132° Southeast 472 543 35,500 -2,700 Descending FlightAware UK
05:39AM 51.5901 -7.6708 132° Southeast 472 543 35,500 3,720 Level FlightAware UK
05:39AM 51.5870 -7.6660 132° Southeast 494 568 37,000  Climbing FlightAware
05:39AM 51.5535 -7.6058 132° Southeast 474 545 35,500 -2,520 Descending FlightAware UK
05:39AM 51.5260 -7.5570 132° Southeast 472 543 35,500 3,300 Level FlightAware UK
05:39AM 51.5180 -7.5440 132° Southeast 494 568 37,000  Climbing FlightAware
05:40AM 51.4893 -7.4922 132° Southeast 470 541 35,500 -2,760 Descending FlightAware UK
05:40AM 51.4619 -7.4434 132° Southeast 470 541 35,500 3,600 Level FlightAware UK
05:40AM 51.4570 -7.4340 132° Southeast 494 568 37,000  Climbing FlightAware
05:40AM 51.4254 -7.3785 132° Southeast 472 543 35,500 -2,580 Descending FlightAware UK
05:41AM 51.3978 -7.3300 132° Southeast 474 545 35,500 3,900 Level FlightAware UK
05:41AM 51.3980 -7.3310 132° Southeast 495 570 37,000  Climbing FlightAware
05:41AM 51.3612 -7.2652 132° Southeast 474 545 35,500  Descending FlightAware UK
05:41AM 51.3490 -7.2440 132° Southeast 496 571 37,000  Climbing FlightAware
05:41AM 51.3337 -7.2166 132° Southeast 474 545 35,500 -4,500 Descending FlightAware UK
05:42AM 51.3061 -7.1682 132° Southeast 472 543 35,500  Level FlightAware UK
05:42AM 51.2784 -7.1198 132° Southeast 474 545 35,500 3,000 Level FlightAware UK
05:42AM 51.2660 -7.0990 132° Southeast 493 567 37,000  Climbing FlightAware
05:43AM 51.2320 -7.0388 132° Southeast 476 548 35,500 -2,520 Descending FlightAware UK
05:43AM 51.2042 -6.9907 133° Southeast 474 545 35,500 4,080 Level FlightAware UK
05:43AM 51.2050 -6.9920 133° Southeast 491 565 37,000  Climbing FlightAware
05:43AM 51.1673 -6.9268 133° Southeast 472 543 35,500  Descending FlightAware UK
05:43AM 51.1610 -6.9160 133° Southeast 489 563 37,000  Climbing FlightAware
05:44AM 51.1214 -6.8475 133° Southeast 472 543 35,500 -2,400 Descending FlightAware UK
05:44AM 51.0939 -6.8000 133° Southeast 470 541 35,500 3,600 Level FlightAware UK
05:44AM 51.0890 -6.7910 133° Southeast 489 563 37,000  Climbing FlightAware
05:44AM 51.0571 -6.7370 133° Southeast 472 543 35,500 -2,580 Descending FlightAware UK
05:45AM 51.0295 -6.6898 133° Southeast 474 545 35,500 4,980 Level FlightAware UK
05:45AM 51.0400 -6.7070 133° Southeast 489 563 37,000  Climbing FlightAware
05:45AM 51.0020 -6.6423 133° Southeast 474 545 35,500 -2,520 Descending FlightAware UK
05:45AM 50.9746 -6.5949 133° Southeast 472 543 35,500 3,300 Level FlightAware UK
05:45AM 50.9650 -6.5790 133° Southeast 488 562 37,000  Climbing FlightAware
05:46AM 50.9378 -6.5322 133° Southeast 470 541 35,500 -2,760 Descending FlightAware UK
05:46AM 50.9102 -6.4852 133° Southeast 470 541 35,500 3,000 Level FlightAware UK
05:46AM 50.8980 -6.4640 133° Southeast 487 560 37,000  Climbing FlightAware
05:47AM 50.8643 -6.4072 133° Southeast 470 541 35,500 -2,520 Descending FlightAware UK
05:47AM 50.8368 -6.3604 133° Southeast 468 539 35,500 4,080 Level FlightAware UK
05:47AM 50.8370 -6.3610 133° Southeast 487 560 37,000  Climbing FlightAware
05:47AM 50.8000 -6.2980 133° Southeast 472 543 35,500 -2,400 Descending FlightAware UK
05:48AM 50.7725 -6.2511 133° Southeast 468 539 35,500 4,500 Level FlightAware UK
05:48AM 50.7760 -6.2570 133° Southeast 487 560 37,000  Climbing FlightAware
05:48AM 50.7450 -6.2045 133° Southeast 468 539 35,500 -2,700 Descending FlightAware UK
05:48AM 50.7173 -6.1581 133° Southeast 468 539 35,500 3,060 Level FlightAware UK
05:48AM 50.7050 -6.1390 133° Southeast 488 562 37,000  Climbing FlightAware
05:49AM 50.6710 -6.0806 133° Southeast 466 536 35,500 -2,460 Descending FlightAware UK
05:49AM 50.6432 -6.0341 133° Southeast 468 539 35,500 4,260 Level FlightAware UK
05:49AM 50.6430 -6.0340 133° Southeast 490 564 37,000  Climbing FlightAware
05:49AM 50.6153 -5.9873 133° Southeast 468 539 35,500  Descending FlightAware UK
05:49AM 50.5970 -5.9580 133° Southeast 493 567 37,000  Climbing FlightAware
05:50AM 50.5682 -5.9086 133° Southeast 472 543 35,500 -2,760 Descending FlightAware UK
05:50AM 50.5401 -5.8616 133° Southeast 474 545 35,500 3,600 Level FlightAware UK
05:50AM 50.5380 -5.8590 133° Southeast 493 567 37,000  Climbing FlightAware
05:50AM 50.5025 -5.7991 133° Southeast 472 543 35,500 -2,580 Descending FlightAware UK
05:51AM 50.4742 -5.7524 134° Southeast 472 543 35,500 3,900 Level FlightAware UK
05:51AM 50.4720 -5.7500 134° Southeast 494 568 37,000  Climbing FlightAware
05:51AM 50.4364 -5.6902 134° Southeast 472 543 35,500  Descending FlightAware UK
05:51AM 50.4180 -5.6610 134° Southeast 493 567 37,000  Climbing FlightAware
05:51AM 50.4081 -5.6436 134° Southeast 472 543 35,500 -4,500 Descending FlightAware UK
05:52AM 50.3798 -5.5971 134° Southeast 470 541 35,500  Level FlightAware UK
05:52AM 50.3515 -5.5506 134° Southeast 472 543 35,500 3,000 Level FlightAware UK
05:52AM 50.3400 -5.5310 134° Southeast 494 568 37,000  Climbing FlightAware
05:53AM 50.3044 -5.4731 134° Southeast 474 545 35,500 -2,520 Descending FlightAware UK
05:53AM 50.2761 -5.4266 134° Southeast 472 543 35,500 4,080 Level FlightAware UK
05:53AM 50.2730 -5.4220 134° Southeast 495 570 37,000  Climbing FlightAware
05:53AM 50.2286 -5.3493 134° Southeast 476 548 35,500  Descending FlightAware UK
05:54AM 50.2100 -5.3200 134° Southeast 494 568 37,000  Climbing FlightAware
05:54AM 50.1812 -5.2723 134° Southeast 474 545 35,500 -2,700 Descending FlightAware UK
05:54AM 50.1527 -5.2261 134° Southeast 472 543 35,500 3,060 Level FlightAware UK
05:54AM 50.1400 -5.2070 134° Southeast 491 565 37,000  Climbing FlightAware
05:55AM 50.0923 -5.1412 134° Southeast 470 541 35,500  Descending FlightAware UK
05:55AM 50.0760 -5.1190 134° Southeast 489 563 37,000  Climbing FlightAware
05:55AM 50.0408 -5.0722 134° Southeast 474 545 35,500 -2,760 Descending FlightAware UK
05:56AM 50.0096 -5.0304 139° Southeast 476 548 35,500 3,600 Level FlightAware UK
05:56AM 50.0050 -5.0240 139° Southeast 490 564 37,000  Climbing FlightAware
05:56AM 49.9686 -4.9752 139° Southeast 476 548 35,500 -2,580 Descending FlightAware UK
05:56AM 49.9378 -4.9339 139° Southeast 474 545 35,500 3,180 Level FlightAware UK
05:56AM 49.9300 -4.9230 139° Southeast 487 560 37,000  Climbing FlightAware
05:57AM 49.8867 -4.8656 139° Southeast 476 548 35,500 -2,400 Descending FlightAware UK
05:57AM 49.8564 -4.8241 139° Southeast 478 550 35,500 4,500 Level FlightAware UK
05:57AM 49.8600 -4.8260 139° Southeast 488 562 37,000  Climbing FlightAware
05:57AM 49.8319 -4.7738 139° Southeast 474 545 35,500 -2,700 Descending FlightAware UK
05:58AM 49.8058 -4.7256 130° Southeast 472 543 35,500 3,060 Level FlightAware UK
05:58AM 49.7950 -4.7050 130° Southeast 487 560 37,000  Climbing FlightAware
05:58AM 49.7539 -4.6297 130° Southeast 470 541 35,500  Descending FlightAware UK
05:58AM 49.7370 -4.5990 130° Southeast 487 560 37,000  Climbing FlightAware
05:59AM 49.7105 -4.5498 130° Southeast 468 539 35,500 -2,340 Descending FlightAware UK
05:59AM 49.6759 -4.4858 130° Southeast 466 536 35,500 3,000 Level FlightAware UK
05:59AM 49.6740 -4.4800 130° Southeast 489 563 37,000 1,920 Climbing FlightAware
06:00AM 49.6240 -4.3630 123° Southeast 497 572 37,000 -1,500 Level FlightAware
06:00AM 49.5987 -4.2854 123° Southeast 468 539 35,500  Descending FlightAware UK
06:01AM 49.5880 -4.2410 123° Southeast 504 580 37,000  Climbing FlightAware
06:01AM 49.5708 -4.1633 123° Southeast 470 541 35,500 -2,220 Descending FlightAware UK
06:01AM 49.5578 -4.0787 103° East 468 539 35,500 3,180 Level FlightAware UK
06:01AM 49.5570 -4.0700 103° East 511 588 37,000 2,040 Climbing FlightAware
06:02AM 49.5390 -3.9280 101° East 512 589 37,000 -1,140 Level FlightAware
06:03AM 49.5196 -3.7785 101° East 472 543 35,500  Descending FlightAware UK
06:03AM 49.5180 -3.7710 101° East 513 590 37,000  Climbing FlightAware
06:03AM 49.5082 -3.6931 101° East 470 541 35,500 -2,460 Descending FlightAware UK
06:03AM 49.4995 -3.6291 102° East 466 536 35,500 4,260 Level FlightAware UK
06:03AM 49.5000 -3.6340 102° East 512 589 37,000  Climbing FlightAware
06:04AM 49.4906 -3.5651 102° East 468 539 35,500 -2,760 Descending FlightAware UK
06:04AM 49.4817 -3.5012 102° East 470 541 35,500 3,000 Level FlightAware UK
06:04AM 49.4760 -3.4650 102° East 514 592 37,000  Climbing FlightAware
06:05AM 49.4634 -3.3731 102° East 468 539 35,500  Descending FlightAware UK
06:05AM 49.4560 -3.3250 102° East 515 593 37,000  Climbing FlightAware
06:05AM 49.4422 -3.2225 102° East 466 536 35,500  Descending FlightAware UK
06:05AM 49.4360 -3.1810 102° East 517 595 37,000  Climbing FlightAware
06:06AM 49.4275 -3.1156 102° East 468 539 35,500 -2,700 Descending FlightAware UK
06:06AM 49.4184 -3.0504 102° East 470 541 35,500 3,060 Level FlightAware UK
06:06AM 49.4140 -3.0220 102° East 519 597 37,000  Climbing FlightAware
06:07AM 49.4031 -2.9417 102° East 472 543 35,500 -2,460 Descending FlightAware UK
06:07AM 49.3937 -2.8768 103° East 472 543 35,500 4,260 Level FlightAware UK
06:07AM 49.3940 -2.8790 103° East 520 598 37,000  Climbing FlightAware
06:07AM 49.3842 -2.8120 103° East 470 541 35,500 -2,340 Descending FlightAware UK
06:08AM 49.3716 -2.7257 103° East 468 539 35,500 3,000 Level FlightAware UK
06:08AM 49.3700 -2.7130 103° East 522 601 37,000  Climbing FlightAware
06:08AM 49.3565 -2.6173 103° East 470 541 35,500  Descending FlightAware UK
06:08AM 49.3500 -2.5670 103° East 524 603 37,000  Climbing FlightAware
06:09AM 49.3360 -2.4637 103° East 472 543 35,500  Descending FlightAware UK
06:09AM 49.3320 -2.4320 103° East 526 605 37,000  Climbing FlightAware
06:09AM 49.3211 -2.3536 103° East 470 541 35,500 -2,700 Descending FlightAware UK
06:10AM 49.3121 -2.2889 102° East 470 541 35,500 3,180 Level FlightAware UK
06:10AM 49.3080 -2.2640 102° East 527 606 37,000  Climbing FlightAware
06:10AM 49.2963 -2.1796 102° East 470 541 35,500  Descending FlightAware UK
06:10AM 49.2900 -2.1370 102° East 527 606 37,000  Climbing FlightAware
06:11AM 49.2671 -1.9817 102° East 468 539 35,500  Descending FlightAware UK
06:11AM 49.2660 -1.9750 102° East 528 608 37,000  Climbing FlightAware
06:12AM 49.2474 -1.8504 102° East 472 543 35,500  Descending FlightAware UK
06:12AM 49.2410 -1.8070 102° East 530 610 37,000  Climbing FlightAware
06:12AM 49.2216 -1.6758 102° East 476 548 35,500  Descending FlightAware UK
06:12AM 49.2190 -1.6570 102° East 529 609 37,000  Climbing FlightAware
06:13AM 49.2089 -1.5891 102° East 474 545 35,500  Descending FlightAware UK
06:13AM 49.1950 -1.4990 102° East 527 606 37,000  Climbing FlightAware
06:14AM 49.1822 -1.4136 102° East 472 543 35,500  Descending FlightAware UK
06:14AM 49.1730 -1.3570 102° East 525 604 37,000 1,500 Climbing FlightAware
06:15AM 49.1520 -1.2200 103° East 523 602 37,000 -1,560 Level FlightAware
06:15AM 49.1384 -1.1323 103° East 470 541 35,500 -2,520 Descending FlightAware UK
06:15AM 49.1286 -1.0678 103° East 470 541 35,500 3,300 Level FlightAware UK
06:15AM 49.1250 -1.0450 103° East 522 601 37,000  Climbing FlightAware
06:16AM 49.1153 -0.9821 103° East 468 539 35,500  Descending FlightAware UK
06:16AM 49.1030 -0.9080 103° East 521 600 37,000  Climbing FlightAware
06:17AM 49.0814 -0.7685 103° East 470 541 35,500  Descending FlightAware UK
06:17AM 49.0780 -0.7490 103° East 521 600 37,000  Climbing FlightAware
06:17AM 49.0677 -0.6823 103° East 470 541 35,500 -2,340 Descending FlightAware UK
06:17AM 49.0554 -0.5965 102° East 472 543 35,500 3,600 Level FlightAware UK
06:17AM 49.0570 -0.6030 102° East 523 602 37,000  Climbing FlightAware
06:18AM 49.0499 -0.5301 102° East 468 539 35,500  Descending FlightAware UK
06:18AM 49.0426 -0.4524 102° East 524 603 37,000  Climbing FlightAware ADS-B
06:18AM 49.0356 -0.3764 102° East 468 539 35,500  Descending FlightAware UK
06:19AM 49.0289 -0.3066 102° East 524 603 37,000  Climbing FlightAware ADS-B
06:19AM 49.0231 -0.2454 102° East 466 536 35,500 -2,700 Descending FlightAware UK
06:19AM 49.0168 -0.1792 98° East 468 539 35,500 3,000 Level FlightAware UK
06:19AM 49.0140 -0.1460 98° East 526 605 37,000 4,980 Climbing FlightAware
06:20AM 49.0110 -0.1183 99° East 524 603 37,000  Level FlightAware ADS-B
06:20AM 48.9989 0.0015 99° East 526 605 37,000 -1,680 Level FlightAware ADS-B
06:20AM 48.9907 0.0839 99° East 470 541 35,500  Descending FlightAware UK
06:21AM 48.9871 0.1175 99° East 526 605 37,000  Climbing FlightAware ADS-B
06:21AM 48.9793 0.1940 99° East 466 536 35,500  Descending FlightAware UK
06:21AM 48.9742 0.2420 99° East 526 605 37,000  Climbing FlightAware ADS-B
06:21AM 48.9679 0.3040 99° East 468 539 35,500  Descending FlightAware UK
06:22AM 48.9571 0.4061 99° East 526 605 37,000  Climbing FlightAware ADS-B
06:22AM 48.9489 0.4793 99° East 468 539 35,500  Descending FlightAware UK
06:22AM 48.9366 0.5106 99° East 508 585 37,000  Climbing FlightAware ADS-B
06:23AM 48.9137 0.5714 99° East 468 539 35,500  Descending FlightAware UK
06:23AM 48.9060 0.5940 99° East 502 578 37,000 4,080 Climbing FlightAware
06:23AM 48.8911 0.6316 121° Southeast 503 579 37,000  Level FlightAware ADS-B
06:23AM 48.8773 0.6590 128° Southeast 490 564 37,000 -2,760 Level FlightAware ADS-B
06:24AM 48.8395 0.7199 128° Southeast 464 534 35,500  Descending FlightAware UK
06:24AM 48.8199 0.7524 128° Southeast 485 558 37,000  Climbing FlightAware ADS-B
06:24AM 48.7939 0.7944 128° Southeast 466 536 35,500  Descending FlightAware UK
06:24AM 48.7721 0.8345 128° Southeast 489 563 37,000  Climbing FlightAware ADS-B
06:25AM 48.7467 0.8964 128° Southeast 464 534 35,500  Descending FlightAware UK
06:25AM 48.7360 0.9251 128° Southeast 501 577 37,000  Climbing FlightAware ADS-B
06:25AM 48.7129 0.9881 128° Southeast 464 534 35,500  Descending FlightAware UK
06:26AM 48.6913 1.0472 128° Southeast 500 575 37,000  Climbing FlightAware ADS-B
06:26AM 48.6726 1.0979 128° Southeast 464 534 35,500  Descending FlightAware UK
06:26AM 48.6569 1.1405 128° Southeast 501 577 37,000  Climbing FlightAware ADS-B
06:27AM 48.6254 1.2258 128° Southeast 464 534 35,500  Descending FlightAware UK
06:27AM 48.6105 1.2649 128° Southeast 500 575 37,000  Climbing FlightAware ADS-B
06:27AM 48.5844 1.3346 128° Southeast 464 534 35,500  Descending FlightAware UK
06:27AM 48.5757 1.3575 128° Southeast 500 575 37,000  Climbing FlightAware ADS-B
06:28AM 48.5572 1.4072 128° Southeast 468 539 35,500  Descending FlightAware UK
06:28AM 48.5403 1.4520 128° Southeast 499 574 37,000  Climbing FlightAware ADS-B
06:28AM 48.5161 1.5166 128° Southeast 462 532 35,500  Descending FlightAware UK
06:28AM 48.5062 1.5439 128° Southeast 498 573 37,000  Climbing FlightAware ADS-B
06:29AM 48.4828 1.6068 128° Southeast 462 532 35,500  Descending FlightAware UK
06:29AM 48.4698 1.6416 128° Southeast 498 573 37,000  Climbing FlightAware ADS-B
06:29AM 48.4489 1.6979 128° Southeast 468 539 35,500  Descending FlightAware UK
06:29AM 48.4316 1.7434 128° Southeast 498 573 37,000  Climbing FlightAware ADS-B
06:30AM 48.4085 1.8063 128° Southeast 466 536 35,500  Descending FlightAware UK
06:30AM 48.3971 1.8356 128° Southeast 494 568 37,000 2,100 Climbing FlightAware ADS-B
06:30AM 48.3629 1.9264 120° Southeast 491 565 37,000  Level FlightAware ADS-B
06:31AM 48.3292 2.0158 120° Southeast 491 565 37,000  Level FlightAware ADS-B
06:32AM 48.2983 2.1125 116° Southeast 494 568 37,000  Level FlightAware ADS-B
06:32AM 48.2655 2.2181 115° Southeast 495 570 37,000  Level FlightAware ADS-B
06:33AM 48.2250 2.3440 116° Southeast 494 568 37,000  Level FlightAware
06:33AM 48.2159 2.3729 115° Southeast 495 570 37,000  Level FlightAware ADS-B
06:33AM 48.1859 2.4644 116° Southeast 495 570 37,000  Level FlightAware ADS-B
06:34AM 48.1709 2.5040 120° Southeast 491 565 37,000  Level FlightAware ADS-B
06:34AM 48.1309 2.5911 125° Southeast 485 558 37,000  Level FlightAware ADS-B
06:35AM 48.0896 2.6646 130° Southeast 481 554 37,000  Level FlightAware ADS-B
06:36AM 48.0090 2.7770 137° Southeast 471 542 37,000  Level FlightAware
06:36AM 47.9723 2.8174 144° Southeast 480 552 37,000  Level FlightAware ADS-B
06:36AM 47.9634 2.8265 146° Southeast 465 535 37,000  Level FlightAware ADS-B
06:37AM 47.8970 2.8848 150° Southeast 464 534 37,000  Level FlightAware ADS-B
06:37AM 47.8610 2.9106 154° Southeast 454 522 37,000  Level FlightAware ADS-B
06:37AM 47.8001 2.9515 156° South 457 526 37,000  Level FlightAware ADS-B
06:38AM 47.7533 2.9886 152° Southeast 464 534 37,000  Level FlightAware ADS-B
06:38AM 47.7370 3.0078 141° Southeast 475 547 37,000  Level FlightAware ADS-B
06:38AM 47.6909 3.0837 132° Southeast 484 557 37,000  Level FlightAware ADS-B
06:39AM 47.6440 3.1640 131° Southeast 486 559 37,000  Level FlightAware
06:40AM 47.5816 3.2675 132° Southeast 490 564 37,000  Level FlightAware ADS-B
06:40AM 47.5230 3.3650 132° Southeast 492 566 37,000  Level FlightAware
06:41AM 47.4500 3.4860 132° Southeast 492 566 37,000  Level FlightAware
06:42AM 47.3870 3.5910 132° Southeast 493 567 37,000  Level FlightAware
06:42AM 47.3451 3.6594 132° Southeast 493 567 37,000  Level FlightAware ADS-B
06:43AM 47.3055 3.7326 129° Southeast 500 575 37,000  Level FlightAware ADS-B
06:43AM 47.2614 3.8306 124° Southeast 500 575 37,000  Level FlightAware ADS-B
06:44AM 47.2229 3.9160 124° Southeast 500 575 37,000  Level FlightAware ADS-B
06:44AM 47.1758 4.0200 124° Southeast 501 577 37,000  Level FlightAware ADS-B
06:45AM 47.1358 4.1079 124° Southeast 501 577 37,000  Level FlightAware ADS-B
06:46AM 47.0909 4.2065 124° Southeast 500 575 37,000  Level FlightAware ADS-B
06:46AM 47.0497 4.2964 124° Southeast 500 575 37,000  Level FlightAware ADS-B
06:47AM 47.0103 4.3822 124° Southeast 501 577 37,000  Level FlightAware ADS-B
06:47AM 46.9648 4.4811 124° Southeast 501 577 37,000  Level FlightAware ADS-B
06:48AM 46.8950 4.6320 124° Southeast 502 578 37,000  Level FlightAware
06:49AM 46.8380 4.7550 124° Southeast 498 573 37,000  Level FlightAware
06:50AM 46.7840 4.8700 124° Southeast 494 568 37,000  Level FlightAware
06:50AM 46.7240 4.9980 124° Southeast 493 567 37,000  Level FlightAware
06:51AM 46.6780 5.1110 121° Southeast 497 572 37,000  Level FlightAware
06:52AM 46.6310 5.2270 121° Southeast 498 573 37,000  Level FlightAware
06:52AM 46.5800 5.3540 120° Southeast 501 577 37,000  Level FlightAware
06:53AM 46.5330 5.4710 120° Southeast 504 580 37,000  Level FlightAware
06:54AM 46.4780 5.6060 121° Southeast 505 581 37,000  Level FlightAware
06:54AM 46.4310 5.7200 121° Southeast 507 583 37,000  Level FlightAware
06:55AM 46.3840 5.8330 121° Southeast 507 583 37,000  Level FlightAware
06:56AM 46.3320 5.9680 119° Southeast 512 589 37,000  Level FlightAware
06:57AM 46.3070 6.0890 107° East 514 592 37,000  Level FlightAware
06:57AM 46.2760 6.2370 107° East 515 593 37,000  Level FlightAware
06:58AM 46.2480 6.3680 107° East 513 590 37,000  Level FlightAware
06:59AM 46.2200 6.4980 107° East 513 590 37,000  Level FlightAware
06:59AM 46.1920 6.6310 107° East 512 589 37,000  Level FlightAware
07:00AM 46.1600 6.7790 107° East 511 588 37,000  Level FlightAware
07:01AM 46.1310 6.9070 108° East 507 583 37,000  Level FlightAware
07:01AM 46.0760 7.0310 123° Southeast 502 578 37,000  Level FlightAware
07:02AM 46.0230 7.1420 124° Southeast 498 573 37,000  Level FlightAware
07:03AM 45.9620 7.2680 125° Southeast 503 579 37,000  Level FlightAware
07:04AM 45.9090 7.3800 124° Southeast 500 575 37,000  Level FlightAware
07:04AM 45.8610 7.4920 122° Southeast 501 577 37,000  Level FlightAware
07:05AM 45.8040 7.6200 123° Southeast 505 581 37,000  Level FlightAware
07:06AM 45.7570 7.7260 122° Southeast 505 581 37,000  Level FlightAware
07:06AM 45.7060 7.8410 122° Southeast 504 580 37,000  Level FlightAware
07:07AM 45.6410 7.9850 123° Southeast 505 581 37,000  Level FlightAware
07:08AM 45.5910 8.0950 123° Southeast 505 581 37,000  Level FlightAware
07:08AM 45.5410 8.2050 123° Southeast 506 582 37,000  Level FlightAware
07:09AM 45.4840 8.3320 123° Southeast 504 580 37,000  Level FlightAware
07:10AM 45.4350 8.4390 123° Southeast 503 579 37,000  Level FlightAware
07:11AM 45.3790 8.5600 123° Southeast 505 581 37,000  Level FlightAware
07:11AM 45.3190 8.6910 123° Southeast 506 582 37,000  Level FlightAware
07:12AM 45.2670 8.8010 124° Southeast 507 583 37,000  Level FlightAware
07:13AM 45.2100 8.9250 123° Southeast 508 585 37,000  Level FlightAware
07:13AM 45.1680 9.0150 123° Southeast 508 585 37,000  Level FlightAware
07:16AM 45.0502 9.3985 113° Southeast  Level Estimated
07:16AM 44.9790 9.4170 113° Southeast 508 585 37,000  Level FlightAware
07:17AM 44.9210 9.5380 124° Southeast 507 583 37,000  Level FlightAware
07:19AM 44.8157 9.8763 114° Southeast  Level Estimated
07:19AM 44.7540 9.8870 114° Southeast 503 579 37,000  Level FlightAware
07:19AM 44.6890 10.0210 124° Southeast 505 581 37,000  Level FlightAware
07:20AM 44.6330 10.1360 124° Southeast 505 581 37,000  Level FlightAware
07:21AM 44.5840 10.2360 125° Southeast 506 582 37,000  Level FlightAware
07:22AM 44.5220 10.3630 124° Southeast 504 580 37,000  Level FlightAware
07:22AM 44.4610 10.4870 125° Southeast 501 577 37,000  Level FlightAware
07:23AM 44.4190 10.5720 125° Southeast 500 575 37,000  Level FlightAware
07:24AM 44.3630 10.6840 125° Southeast 498 573 37,000  Level FlightAware
07:24AM 44.3040 10.8030 125° Southeast 497 572 37,000  Level FlightAware
07:25AM 44.2480 10.9160 125° Southeast 495 570 37,000  Level FlightAware
07:26AM 44.1940 11.0230 125° Southeast 496 571 37,000  Level FlightAware
07:26AM 44.1340 11.1420 125° Southeast 498 573 37,000  Level FlightAware
07:27AM 44.0840 11.2420 125° Southeast 498 573 37,000  Level FlightAware
07:28AM 44.0220 11.3630 125° Southeast 500 575 37,000  Level FlightAware
07:28AM 43.9830 11.4410 125° Southeast 500 575 37,000  Level FlightAware
07:29AM 43.9180 11.5590 127° Southeast 500 575 37,000  Level FlightAware
07:30AM 43.8520 11.6610 132° Southeast 501 577 37,000  Level FlightAware
07:31AM 43.7570 11.8060 132° Southeast 502 578 37,000  Level FlightAware
07:32AM 43.7010 11.8930 132° Southeast 497 572 37,000  Level FlightAware
07:32AM 43.6380 11.9890 132° Southeast 498 573 37,000  Level FlightAware
07:33AM 43.5510 12.1210 132° Southeast 497 572 37,000  Level FlightAware
07:34AM 43.4770 12.2310 133° Southeast 498 573 37,000  Level FlightAware
07:35AM 43.4180 12.3200 132° Southeast 498 573 37,000  Level FlightAware
07:36AM 43.4210 12.3150 310° West 497 572 37,000  Level FlightAware
07:36AM 43.2610 12.5550 132° Southeast 498 573 37,000  Level FlightAware
07:37AM 43.1820 12.6720 133° Southeast 505 581 37,000  Level FlightAware
07:38AM 43.1020 12.7890 133° Southeast 507 583 37,000  Level FlightAware
07:39AM 43.0380 12.8830 133° Southeast 508 585 37,000  Level FlightAware
07:39AM 42.9660 12.9890 133° Southeast 508 585 37,000  Level FlightAware
07:40AM 42.9050 13.0780 133° Southeast 510 587 37,000  Level FlightAware
07:41AM 42.8440 13.1670 133° Southeast 512 589 37,000  Level FlightAware
07:41AM 42.7880 13.2490 133° Southeast 506 582 37,000  Level FlightAware
07:42AM 42.6910 13.3880 133° Southeast 517 595 37,000  Level FlightAware
07:43AM 42.6280 13.4790 133° Southeast 517 595 37,000  Level FlightAware
07:43AM 42.5620 13.5740 133° Southeast 519 597 37,000  Level FlightAware
07:44AM 42.4880 13.6800 133° Southeast 522 601 37,000  Level FlightAware
07:45AM 42.4210 13.7750 134° Southeast 523 602 37,000  Level FlightAware
07:45AM 42.3660 13.8540 133° Southeast 523 602 37,000  Level FlightAware
07:46AM 42.2760 13.9810 134° Southeast 525 604 37,000  Level FlightAware
07:47AM 42.2080 14.0760 134° Southeast 528 608 37,000  Level FlightAware
07:48AM 42.1350 14.1790 134° Southeast 530 610 37,000  Level FlightAware
07:48AM 42.0670 14.2740 134° Southeast 527 606 37,000  Level FlightAware
07:49AM 41.9980 14.3700 134° Southeast 526 605 37,000  Level FlightAware
07:50AM 41.9220 14.4760 134° Southeast 516 594 37,000  Level FlightAware
07:50AM 41.8560 14.5690 134° Southeast 521 600 37,000  Level FlightAware
07:51AM 41.7900 14.6590 135° Southeast 517 595 37,000  Level FlightAware
07:52AM 41.7200 14.7560 134° Southeast 511 588 37,000  Level FlightAware
07:53AM 41.6490 14.8540 134° Southeast 514 592 37,000  Level FlightAware
07:53AM 41.5760 14.9540 134° Southeast 516 594 37,000  Level FlightAware
07:54AM 41.5100 15.0440 134° Southeast 516 594 37,000  Level FlightAware
07:55AM 41.4440 15.1330 135° Southeast 514 592 37,000  Level FlightAware
07:55AM 41.3650 15.2410 134° Southeast 512 589 37,000  Level FlightAware
07:56AM 41.2990 15.3300 135° Southeast 511 588 37,000  Level FlightAware
07:57AM 41.2280 15.4300 133° Southeast 505 581 37,000  Level FlightAware
07:57AM 41.1860 15.5390 117° Southeast 499 574 37,000  Level FlightAware
07:58AM 41.1460 15.6510 115° Southeast 498 573 37,000  Level FlightAware
07:59AM 41.1010 15.7770 115° Southeast 499 574 37,000  Level FlightAware
07:59AM 41.0670 15.8690 116° Southeast 496 571 37,000  Level FlightAware
08:00AM 41.0370 15.9520 116° Southeast 494 568 37,000  Level FlightAware
08:01AM 40.9980 16.0580 116° Southeast 491 565 37,000  Level FlightAware
08:01AM 40.9580 16.1670 116° Southeast 490 564 37,000  Level FlightAware
08:02AM 40.9180 16.2760 116° Southeast 491 565 37,000  Level FlightAware
08:03AM 40.8790 16.3810 116° Southeast 491 565 37,000  Level FlightAware
08:03AM 40.8390 16.4880 116° Southeast 487 560 37,000  Level FlightAware
08:04AM 40.8000 16.5940 116° Southeast 480 552 37,000  Level FlightAware
08:05AM 40.7600 16.7000 116° Southeast 480 552 37,000  Level FlightAware
08:05AM 40.7200 16.8050 117° Southeast 479 551 37,000  Level FlightAware
08:06AM 40.6760 16.9230 116° Southeast 477 549 37,000  Level FlightAware
08:07AM 40.6360 17.0280 117° Southeast 475 547 37,000  Level FlightAware
08:07AM 40.5930 17.1420 116° Southeast 474 545 37,000  Level FlightAware
08:08AM 40.5540 17.2430 117° Southeast 473 544 37,000  Level FlightAware
08:09AM 40.5140 17.3450 117° Southeast 475 547 37,000  Level FlightAware
08:10AM 40.4550 17.4520 126° Southeast 474 545 37,000  Level FlightAware
08:10AM 40.3950 17.5370 133° Southeast 472 543 37,000  Level FlightAware
08:11AM 40.3360 17.6200 133° Southeast 471 542 37,000  Level FlightAware
08:12AM 40.2690 17.7110 134° Southeast 471 542 37,000  Level FlightAware
08:12AM 40.2080 17.7930 134° Southeast 473 544 37,000  Level FlightAware
08:13AM 40.1390 17.8860 134° Southeast 471 542 37,000  Level FlightAware
08:14AM 40.0780 17.9680 134° Southeast 469 540 37,000  Level FlightAware
08:14AM 40.0330 18.0280 134° Southeast 469 540 37,000  Level FlightAware
08:15AM 39.9720 18.1100 134° Southeast 468 539 37,000  Level FlightAware
08:16AM 39.9060 18.1980 134° Southeast 466 536 37,000  Level FlightAware
08:16AM 39.8500 18.2710 135° Southeast 466 536 37,000  Level FlightAware
08:17AM 39.7920 18.3480 134° Southeast 463 533 37,000  Level FlightAware
08:18AM 39.7210 18.4420 134° Southeast 463 533 37,000  Level FlightAware
08:19AM 39.6610 18.5210 135° Southeast 463 533 37,000  Level FlightAware
08:19AM 39.5970 18.6050 135° Southeast 464 534 37,000  Level FlightAware
08:20AM 39.5340 18.6880 135° Southeast 466 536 37,000  Level FlightAware
08:21AM 39.4760 18.7640 135° Southeast 469 540 37,000  Level FlightAware
08:21AM 39.4060 18.8550 135° Southeast 471 542 37,000  Level FlightAware
08:22AM 39.3390 18.9410 135° Southeast 471 542 37,000  Level FlightAware
08:23AM 39.2790 19.0190 135° Southeast 473 544 37,000  Level FlightAware
08:23AM 39.2180 19.0990 135° Southeast 475 547 37,000  Level FlightAware
08:24AM 39.1570 19.1840 133° Southeast 472 543 37,000 60 Level FlightAware
08:25AM 39.0940 19.3030 124° Southeast 470 541 37,100 360 Climbing FlightAware
08:26AM 39.0450 19.3950 124° Southeast 467 537 37,600 900 Climbing FlightAware
08:26AM 38.9970 19.4860 124° Southeast 460 529 38,300 660 Climbing FlightAware
08:27AM 38.9480 19.5760 125° Southeast 459 528 38,600 300 Climbing FlightAware
08:28AM 38.8940 19.6770 124° Southeast 462 532 38,800 180 Climbing FlightAware
08:28AM 38.8450 19.7690 124° Southeast 465 535 38,900 120 Climbing FlightAware
08:29AM 38.7970 19.8580 125° Southeast 465 535 39,000 60 Climbing FlightAware
08:30AM 38.7390 19.9630 125° Southeast 464 534 39,000  Level FlightAware
08:31AM 38.6910 20.0520 125° Southeast 469 540 39,000  Level FlightAware
08:31AM 38.6400 20.1460 125° Southeast 467 537 39,000  Level FlightAware
08:32AM 38.5760 20.2650 125° Southeast 466 536 39,000  Level FlightAware
08:33AM 38.5350 20.3430 124° Southeast 466 536 39,000  Level FlightAware
08:34AM 38.4830 20.4400 124° Southeast 466 536 39,000  Level FlightAware
08:34AM 38.4420 20.5180 124° Southeast 466 536 39,000  Level FlightAware
08:35AM 38.4010 20.5950 124° Southeast 466 536 39,000  Level FlightAware
08:36AM 38.2890 20.7820 127° Southeast 459 528 39,000  Level FlightAware
08:37AM 38.2260 20.8990 124° Southeast 458 527 39,000  Level FlightAware
08:37AM 38.1850 20.9750 124° Southeast 458 527 39,000  Level FlightAware
08:38AM 38.1450 21.0510 124° Southeast 458 527 39,000  Level FlightAware
08:39AM 38.0950 21.1460 124° Southeast 458 527 39,000  Level FlightAware
08:39AM 38.0550 21.2220 124° Southeast 458 527 39,000  Level FlightAware
08:40AM 38.0140 21.2980 124° Southeast 458 527 39,000  Level FlightAware
08:41AM 37.9740 21.3730 124° Southeast 458 527 39,000  Level FlightAware
08:42AM 37.8350 21.5920 129° Southeast 465 535 39,000  Level FlightAware
08:42AM 37.7930 21.6670 125° Southeast 465 535 39,000  Level FlightAware
08:43AM 37.7240 21.7840 127° Southeast 468 539 39,000  Level FlightAware
08:44AM 37.6870 21.8480 126° Southeast 468 539 39,000  Level FlightAware
08:45AM 37.6180 21.9690 126° Southeast 466 536 39,000  Level FlightAware
08:45AM 37.5650 22.0600 126° Southeast 466 536 39,000  Level FlightAware
08:46AM 37.5160 22.1460 126° Southeast 466 536 39,000  Level FlightAware
08:47AM 37.4450 22.2680 126° Southeast 466 536 39,000  Level FlightAware
08:48AM 37.4020 22.3470 124° Southeast 467 537 39,000  Level FlightAware
08:48AM 37.3660 22.4530 113° Southeast 467 537 39,000  Level FlightAware
08:49AM 37.3200 22.5420 123° Southeast 467 537 39,000  Level FlightAware
08:50AM 37.2920 22.6820 104° East 466 536 39,000  Level FlightAware
08:50AM 37.2610 22.7750 113° Southeast 466 536 39,000  Level FlightAware
08:51AM 37.2300 22.8730 112° Southeast 466 536 39,000  Level FlightAware
08:52AM 37.1940 22.9780 113° Southeast 39,000  Level FlightAware
08:53AM 37.1430 23.1320 113° Southeast 462 532 39,000  Level FlightAware
08:53AM 37.1140 23.2160 113° Southeast 462 532 39,000  Level FlightAware
08:54AM 37.0740 23.3380 112° Southeast 462 532 39,000  Level FlightAware
08:55AM 37.0450 23.4220 113° Southeast 462 532 39,000  Level FlightAware
08:56AM 37.0170 23.5060 113° Southeast 462 532 39,000  Level FlightAware
08:56AM 36.9890 23.5900 113° Southeast 462 532 39,000  Level FlightAware
08:57AM 36.9220 23.7890 113° Southeast 39,000  Level FlightAware
08:58AM 36.8780 23.9180 113° Southeast 453 521 39,000  Level FlightAware
08:59AM 36.8430 24.0180 114° Southeast 452 520 39,000  Level FlightAware
08:59AM 36.8130 24.1070 113° Southeast 452 520 39,000  Level FlightAware
09:00AM 36.7830 24.1930 114° Southeast 454 522 39,000  Level FlightAware
09:01AM 36.7360 24.3310 113° Southeast 454 522 39,000  Level FlightAware
09:02AM 36.7040 24.4220 114° Southeast 454 522 39,000  Level FlightAware
09:02AM 36.6750 24.5050 114° Southeast 454 522 39,000  Level FlightAware
09:03AM 36.6310 24.6300 114° Southeast 452 520 39,000  Level FlightAware
09:04AM 36.5990 24.7240 113° Southeast 451 519 39,000  Level FlightAware
09:04AM 36.5620 24.8280 114° Southeast 448 516 39,000  Level FlightAware
09:05AM 36.5290 24.9220 114° Southeast 446 513 39,000  Level FlightAware
09:06AM 36.4960 25.0160 114° Southeast 444 511 39,000  Level FlightAware
09:07AM 36.4580 25.1240 114° Southeast 445 512 39,000  Level FlightAware
09:07AM 36.4250 25.2140 114° Southeast 446 513 39,000  Level FlightAware
09:08AM 36.3870 25.3210 114° Southeast 444 511 39,000  Level FlightAware
09:09AM 36.3540 25.4130 114° Southeast 441 507 39,000  Level FlightAware
09:09AM 36.3250 25.4940 114° Southeast 441 507 39,000  Level FlightAware
09:10AM 36.2960 25.5750 114° Southeast 444 511 39,000  Level FlightAware
09:10AM 36.2620 25.6690 114° Southeast 443 510 39,000  Level FlightAware
09:11AM 36.2250 25.7710 114° Southeast 443 510 39,000  Level FlightAware
09:12AM 36.1900 25.8670 114° Southeast 443 510 39,000  Level FlightAware
09:12AM 36.1610 25.9480 114° Southeast 443 510 39,000  Level FlightAware
09:13AM 36.1140 26.0760 114° Southeast 444 511 39,000  Level FlightAware
09:14AM 36.0720 26.1900 114° Southeast 440 506 39,000  Level FlightAware
09:15AM 36.0390 26.2810 114° Southeast 443 510 39,000  Level FlightAware
09:16AM 36.0000 26.3870 114° Southeast 439 505 39,000  Level FlightAware
09:17AM 35.9280 26.5810 115° Southeast 439 505 39,000  Level FlightAware
09:18AM 35.8930 26.6740 115° Southeast 440 506 39,000  Level FlightAware
09:18AM 35.8670 26.7430 115° Southeast 441 507 39,000  Level FlightAware
09:19AM 35.8280 26.8470 115° Southeast 442 509 39,000  Level FlightAware
09:20AM 35.7860 26.9600 115° Southeast 445 512 39,000  Level FlightAware
09:21AM 35.7480 27.0610 115° Southeast 446 513 39,000  Level FlightAware
09:21AM 35.6980 27.1910 115° Southeast 446 513 39,000  Level FlightAware
09:22AM 35.6540 27.3110 114° Southeast 446 513 39,000  Level FlightAware
09:23AM 35.6250 27.3900 114° Southeast 446 513 39,000  Level FlightAware
09:24AM 35.5620 27.5480 116° Southeast 446 513 39,000  Level FlightAware
09:25AM 35.5300 27.6310 115° Southeast 450 518 39,000  Level FlightAware
09:25AM 35.4880 27.7410 115° Southeast 456 525 39,000  Level FlightAware
09:26AM 35.4380 27.8690 116° Southeast 459 528 39,000  Level FlightAware
09:27AM 35.4120 27.9380 115° Southeast 459 528 39,000  Level FlightAware
09:28AM 35.3610 28.0660 116° Southeast 448 516 39,000  Level FlightAware
09:28AM 35.3260 28.1560 115° Southeast 444 511 39,000  Level FlightAware
09:29AM 35.2900 28.2490 115° Southeast 444 511 39,000  Level FlightAware
09:30AM 35.2480 28.3540 116° Southeast 445 512 39,000  Level FlightAware
09:31AM 35.2130 28.4430 116° Southeast 447 514 39,000  Level FlightAware
09:31AM 35.1740 28.5430 115° Southeast 447 514 39,000  Level FlightAware
09:32AM 35.1370 28.6350 116° Southeast 447 514 39,000  Level FlightAware
09:33AM 35.1040 28.7200 115° Southeast 449 517 39,000  Level FlightAware
09:33AM 35.0740 28.7990 115° Southeast 449 517 39,000  Level FlightAware
09:34AM 35.0230 28.9210 117° Southeast 444 511 39,000  Level FlightAware
09:35AM 34.9870 29.0110 116° Southeast 444 511 39,000  Level FlightAware
09:35AM 34.9480 29.1090 116° Southeast 445 512 39,000  Level FlightAware
09:36AM 34.9190 29.1810 116° Southeast 445 512 39,000  Level FlightAware
09:37AM 34.8800 29.2770 116° Southeast 445 512 39,000  Level FlightAware
09:37AM 34.8470 29.3580 116° Southeast 446 513 39,000  Level FlightAware
09:38AM 34.8000 29.4730 116° Southeast 445 512 39,000  Level FlightAware
09:39AM 34.7640 29.5620 116° Southeast 447 514 39,000  Level FlightAware
09:40AM 34.7190 29.6710 117° Southeast 450 518 39,000  Level FlightAware
09:40AM 34.6780 29.7700 117° Southeast 450 518 39,000  Level FlightAware
09:41AM 34.6480 29.8450 116° Southeast 451 519 39,000  Level FlightAware
09:42AM 34.6060 29.9550 115° Southeast 451 519 39,000  Level FlightAware
09:42AM 34.5760 30.0330 115° Southeast 451 519 39,000  Level FlightAware
09:44AM 34.4700 30.2260 124° Southeast 39,000  Level FlightAware
09:45AM 34.4030 30.3640 120° Southeast 452 520 39,000  Level FlightAware
09:46AM 34.3310 30.5150 120° Southeast 454 522 39,000  Level FlightAware
09:47AM 34.2560 30.6710 120° Southeast 457 526 39,000  Level FlightAware
09:49AM 34.1430 30.9040 120° Southeast 456 525 39,000  Level FlightAware
09:50AM 34.1050 30.9830 120° Southeast 453 521 39,000  Level FlightAware
09:50AM 34.0510 31.0920 121° Southeast 453 521 39,000  Level FlightAware
09:51AM 34.0080 31.1800 120° Southeast 453 521 39,000  Level FlightAware
09:52AM 33.9650 31.2670 121° Southeast 454 522 39,000  Level FlightAware
09:52AM 33.9170 31.3650 121° Southeast 456 525 39,000  Level FlightAware
09:54AM 33.8410 31.5190 121° Southeast 457 526 39,000  Level FlightAware
09:54AM 33.7900 31.6210 121° Southeast 457 526 39,000  Level FlightAware
09:55AM 33.7470 31.7090 120° Southeast 458 527 39,000  Level FlightAware
09:56AM 33.7040 31.7960 121° Southeast 458 527 39,000  Level FlightAware
09:56AM 33.6530 31.8970 121° Southeast 458 527 39,000  Level FlightAware
09:57AM 33.6070 31.9880 121° Southeast 458 527 39,000  Level FlightAware
09:58AM 33.5580 32.0870 121° Southeast 463 533 39,000  Level FlightAware
09:59AM 33.5140 32.1750 121° Southeast 464 534 39,000  Level FlightAware
09:59AM 33.4680 32.2660 121° Southeast 462 532 39,000  Level FlightAware
10:00AM 33.4250 32.3500 122° Southeast 461 531 39,000  Level FlightAware
10:01AM 33.3750 32.4480 121° Southeast 460 529 39,000  Level FlightAware
10:02AM 33.3030 32.5910 121° Southeast 459 528 39,000  Level FlightAware
10:02AM 33.2670 32.6610 122° Southeast 460 529 39,000  Level FlightAware
10:03AM 33.2200 32.7540 121° Southeast 462 532 39,000  Level FlightAware
10:04AM 33.1760 32.8380 122° Southeast 464 534 39,000  Level FlightAware
10:04AM 33.1190 32.9490 121° Southeast 462 532 39,000  Level FlightAware
10:05AM 33.0650 33.0540 122° Southeast 463 533 39,000  Level FlightAware
10:06AM 33.0120 33.1560 122° Southeast 465 535 39,000  Level FlightAware
10:07AM 32.9550 33.2670 121° Southeast 466 536 39,000  Level FlightAware
10:08AM 32.8990 33.3750 122° Southeast 471 542 39,000  Level FlightAware
10:08AM 32.8590 33.4690 117° Southeast 474 545 39,000  Level FlightAware
10:09AM 32.8200 33.5590 117° Southeast 474 545 39,000 -480 Level FlightAware
10:10AM 32.7750 33.6600 118° Southeast 474 545 38,400 -900 Descending FlightAware
10:10AM 32.7340 33.7530 118° Southeast 466 536 37,800 -1,020 Descending FlightAware
10:11AM 32.6860 33.8610 118° Southeast 481 554 37,000 -1,020 Descending FlightAware
10:12AM 32.6460 33.9510 118° Southeast 479 551 36,400 -1,620 Descending FlightAware
10:13AM 32.6040 34.0460 118° Southeast 494 568 34,900 -2,580 Descending FlightAware
10:13AM 32.5570 34.1520 118° Southeast 498 573 32,800 -2,640 Descending FlightAware
10:14AM 32.5140 34.2460 118° Southeast 486 559 31,200 -2,640 Descending FlightAware
10:15AM 32.4710 34.3410 118° Southeast 483 556 29,300 -2,940 Descending FlightAware
10:15AM 32.4240 34.4470 118° Southeast 478 550 27,100 -2,640 Descending FlightAware
10:16AM 32.3850 34.5330 118° Southeast 467 537 25,600 -2,580 Descending FlightAware
10:17AM 32.3380 34.6360 118° Southeast 458 527 23,500 -2,760 Descending FlightAware
10:17AM 32.3010 34.7170 118° Southeast 455 524 21,700 -2,400 Descending FlightAware
10:18AM 32.2580 34.8120 118° Southeast 436 502 20,300 -2,220 Descending FlightAware
10:19AM 32.2160 34.9040 118° Southeast 424 488 18,600 -1,620 Descending FlightAware
10:19AM 32.1860 34.9690 119° Southeast 424 488 18,200 -1,920 Descending FlightAware
10:20AM 32.1430 35.0650 118° Southeast 402 463 15,900 -2,580 Descending FlightAware
10:21AM 32.1110 35.1330 119° Southeast 397 457 14,600 -2,040 Descending FlightAware
10:22AM 32.0740 35.2120 119° Southeast 389 448 13,200 -1,680 Descending FlightAware
10:22AM 32.0340 35.3000 118° Southeast 370 426 12,100 -1,320 Descending FlightAware
10:23AM 32.0070 35.3590 118° Southeast 365 420 11,500 -720 Descending FlightAware
10:24AM 31.9710 35.4360 119° Southeast 366 421 11,200 -300 Descending FlightAware
10:24AM 31.9330 35.5190 118° Southeast 367 422 11,100 -300 Descending FlightAware
10:25AM 31.9030 35.5980 114° Southeast 365 420 10,800 -1,680 Descending FlightAware
10:26AM 31.8810 35.6760 108° East 356 410 8,800 -3,000 Descending FlightAware
10:26AM 31.8740 35.7010 108° East 355 409 8,300 -780 Descending FlightAware
10:27AM 31.8620 35.7450 108° East 355 409 8,300 -1,140 Level FlightAware
10:27AM 31.8460 35.8000 109° East 332 382 7,300 -1,620 Descending FlightAware
10:28AM 31.8310 35.8520 109° East 306 352 6,700 -900 Descending FlightAware
10:28AM 31.8190 35.8970 107° East 266 306 6,400 -660 Descending FlightAware
10:28AM 31.8090 35.9300 110° East 247 284 6,100 -780 Descending FlightAware
10:29AM 31.8000 35.9650 107° East 221 254 5,700 -780 Descending FlightAware
10:29AM 31.7920 35.9930 109° East 197 227 5,400 -900 Descending FlightAware
10:30AM 31.7890 36.0090 102° East 191 220 5,100 -1,200 Descending FlightAware
10:30AM 31.7850 36.0380 99° East 187 215 4,500 -1,320 Descending FlightAware
10:31AM 31.7830 36.0630 95° East 188 216 3,900 -1,080 Descending FlightAware
10:31AM 31.7770 36.0780 115° Southeast 186 214 3,800  Descending FlightAware
10:31AM 31.7660 36.0840 155° Southeast 177 204 3,900  Climbing FlightAware
10:32AM 31.7410 36.0820 184° South 177 204 3,800 -480 Descending FlightAware
10:32AM 31.7270 36.0680 220° Southwest 154 177 3,500 -900 Descending FlightAware
10:32AM 31.7250 36.0580 257° West 152 175 3,200 -480 Descending FlightAware
10:33AM 31.7220 36.0310 263° West 145 167 3,100 -180 Descending FlightAware
10:35AM 31.7167 36.0000 131° Southeast  Level FlightAware Approximate
10:36AM 31.7226 35.9932 131° Southeast  Level Estimated
10:37AM 31.7226 35.9932 131° Southeast  Level Estimated
10:38AM 31.7226 35.9932 131° Southeast  Level Estimated
10:39AM 31.7226 35.9932 131° Southeast  Level Estimated
10:40AM 31.7226 35.9932 131° Southeast  Level Estimated
10:41AM 31.7226 35.9932 131° Southeast  Level Estimated
10:42AM 31.7226 35.9932 131° Southeast  Level Estimated
10:43AM 31.7226 35.9932 131° Southeast  Level Estimated
10:44AM 31.7226 35.9932 131° Southeast  Level Estimated
10:45AM 31.7226 35.9932 131° Southeast  Level Estimated